Time;durP1;ratioP1;P1;durP2;ratioP2;P2;SDS_P1;SDS_P2;PMS_P1;PMS_P2;Temp;Humidity;BMP_temperature;BMP_pressure;BME280_temperature;BME280_humidity;BME280_pressure;Samples;Min_cycle;Max_cycle;Signal;HPM_P1;HPM_P2
2022/01/02 00:02:28;;;;;;;7.00;3.70;;;9.40;99.90;;;;;;4978914;28;20036;-74
2022/01/02 00:05:02;;;;;;;7.55;4.90;;;9.40;99.90;;;;;;4978678;28;20038;-74
2022/01/02 00:07:30;;;;;;;7.70;4.78;;;9.40;99.90;;;;;;4977652;28;20084;-74
2022/01/02 00:10:00;;;;;;;7.20;5.05;;;9.40;99.90;;;;;;4978766;28;20058;-74
2022/01/02 00:12:31;;;;;;;6.40;4.90;;;9.40;99.90;;;;;;4980583;28;20486;-74
2022/01/02 00:14:58;;;;;;;9.43;4.85;;;9.40;99.90;;;;;;4974703;28;20034;-74
2022/01/02 00:17:24;;;;;;;10.73;5.88;;;9.40;99.90;;;;;;4980315;28;20042;-74
2022/01/02 00:19:56;;;;;;;;;;;9.50;99.90;;;;;;4979929;28;20386;-74
2022/01/02 00:22:35;;;;;;;10.50;3.72;;;9.50;99.90;;;;;;4979787;28;19918;-74
2022/01/02 00:25:04;;;;;;;5.07;3.70;;;9.50;99.90;;;;;;4979346;28;20035;-74
2022/01/02 00:27:31;;;;;;;6.60;4.38;;;9.50;99.90;;;;;;4979511;28;20065;-74
2022/01/02 00:29:58;;;;;;;9.90;4.32;;;9.60;99.90;;;;;;4977377;28;20047;-74
2022/01/02 00:32:23;;;;;;;8.13;4.05;;;9.60;99.90;;;;;;4978551;28;20023;-74
2022/01/02 00:34:50;;;;;;;;;;;9.60;99.90;;;;;;4979176;28;20037;-74
2022/01/02 00:37:16;;;;;;;6.85;4.18;;;9.60;99.90;;;;;;4978284;28;19956;-74
2022/01/02 00:39:42;;;;;;;;;;;9.60;99.90;;;;;;4980379;28;20039;-73
2022/01/02 00:42:17;;;;;;;4.88;3.53;;;9.60;99.90;;;;;;4979487;28;19910;-74
2022/01/02 00:45:00;;;;;;;8.93;4.43;;;9.60;99.90;;;;;;4977459;28;20042;-74
2022/01/02 00:47:36;;;;;;;8.15;4.65;;;9.60;99.90;;;;;;4977608;28;20026;-74
2022/01/02 00:50:14;;;;;;;5.82;4.00;;;9.70;99.90;;;;;;4978642;28;20074;-74
2022/01/02 00:52:43;;;;;;;7.53;4.32;;;9.70;99.90;;;;;;4978023;28;20030;-74
2022/01/02 00:55:16;;;;;;;5.78;3.63;;;9.70;99.90;;;;;;4977784;28;20035;-74
2022/01/02 00:57:42;;;;;;;4.93;3.30;;;9.80;99.90;;;;;;4977623;28;20034;-74
2022/01/02 01:00:09;;;;;;;9.93;3.47;;;9.70;99.90;;;;;;4977058;28;20023;-74
2022/01/02 01:02:44;;;;;;;6.22;5.13;;;9.70;99.90;;;;;;4975396;28;20050;-75
2022/01/02 01:05:10;;;;;;;5.22;3.83;;;9.70;99.90;;;;;;4972796;28;20771;-75
2022/01/02 01:07:36;;;;;;;;;;;9.70;99.90;;;;;;4978958;28;20027;-74
2022/01/02 01:10:06;;;;;;;12.70;4.30;;;9.80;99.90;;;;;;4979565;28;19913;-75
2022/01/02 01:12:32;;;;;;;6.75;3.90;;;9.80;99.90;;;;;;4979134;28;20030;-74
2022/01/02 01:14:57;;;;;;;;;;;9.80;99.90;;;;;;4977586;28;20395;-75
2022/01/02 01:17:24;;;;;;;5.15;4.40;;;9.80;99.90;;;;;;4978441;28;20375;-74
2022/01/02 01:19:52;;;;;;;6.07;4.20;;;9.80;99.90;;;;;;4976709;28;20034;-74
2022/01/02 01:22:17;;;;;;;6.05;5.40;;;9.80;99.90;;;;;;4982049;28;20039;-75
2022/01/02 01:24:43;;;;;;;;;;;9.80;99.90;;;;;;4982270;28;20088;-75
2022/01/02 01:27:09;;;;;;;6.10;4.65;;;9.80;99.90;;;;;;4982845;28;20046;-75
2022/01/02 01:29:36;;;;;;;9.52;5.18;;;9.80;99.90;;;;;;4981893;28;20026;-74
2022/01/02 01:32:07;;;;;;;10.02;5.15;;;9.80;99.90;;;;;;4981723;28;20030;-74
2022/01/02 01:34:33;;;;;;;7.20;4.93;;;9.80;99.90;;;;;;4983269;28;20057;-74
2022/01/02 01:36:59;;;;;;;7.82;4.40;;;9.80;99.90;;;;;;4980765;28;20031;-74
2022/01/02 01:39:25;;;;;;;;;;;9.90;99.90;;;;;;4980287;28;20053;-75
2022/01/02 01:41:52;;;;;;;6.25;4.53;;;9.90;99.90;;;;;;4982658;28;20374;-75
2022/01/02 01:46:47;;;;;;;7.03;3.90;;;9.90;99.90;;;;;;4978889;28;20039;-74
2022/01/02 01:49:19;;;;;;;9.63;3.70;;;10.00;99.90;;;;;;4978925;28;20029;-74
2022/01/02 01:51:46;;;;;;;5.60;3.42;;;9.90;99.90;;;;;;4979242;28;20026;-75
2022/01/02 01:54:11;;;;;;;6.47;5.20;;;9.90;99.90;;;;;;4979975;28;20047;-74
2022/01/02 01:56:37;;;;;;;;;;;9.90;99.90;;;;;;4981975;28;20034;-74
2022/01/02 01:59:04;;;;;;;5.10;3.67;;;9.90;99.90;;;;;;4979886;28;19937;-75
2022/01/02 02:01:30;;;;;;;10.88;6.03;;;9.90;99.90;;;;;;4980760;28;20034;-74
2022/01/02 02:03:56;;;;;;;6.82;4.93;;;9.90;99.90;;;;;;4980885;28;20035;-74
2022/01/02 02:06:22;;;;;;;6.68;3.97;;;9.90;99.90;;;;;;4980775;28;20030;-75
2022/01/02 02:08:50;;;;;;;;;;;9.90;99.90;;;;;;4981474;28;20117;-75
2022/01/02 02:11:16;;;;;;;6.78;4.18;;;10.00;99.90;;;;;;4978001;28;19957;-74
2022/01/02 02:13:42;;;;;;;;;;;10.00;99.90;;;;;;4981686;28;20434;-74
2022/01/02 02:16:07;;;;;;;6.43;5.30;;;10.00;99.90;;;;;;4978786;28;19997;-75
2022/01/02 02:18:34;;;;;;;;;;;10.00;99.90;;;;;;4981712;28;20129;-75
2022/01/02 02:21:00;;;;;;;8.57;4.68;;;10.00;99.90;;;;;;4981780;28;20377;-75
2022/01/02 02:23:26;;;;;;;10.20;6.25;;;10.00;99.90;;;;;;4981583;28;20034;-75
2022/01/02 02:25:51;;;;;;;;;;;10.10;99.90;;;;;;4982176;28;20065;-75
2022/01/02 02:28:17;;;;;;;7.75;5.55;;;10.00;99.90;;;;;;4979928;28;19914;-75
2022/01/02 02:30:46;;;;;;;11.30;4.60;;;10.00;99.90;;;;;;4978203;28;20027;-75
2022/01/02 02:33:14;;;;;;;11.25;5.95;;;10.00;99.90;;;;;;4980044;28;20042;-75
2022/01/02 02:35:41;;;;;;;9.40;4.20;;;10.10;99.90;;;;;;4980364;28;20694;-75
2022/01/02 02:38:09;;;;;;;6.75;3.72;;;10.10;99.90;;;;;;4980887;28;20027;-75
2022/01/02 02:40:36;;;;;;;9.15;5.30;;;10.10;99.90;;;;;;4978650;28;20064;-75
2022/01/02 02:43:19;;;;;;;7.15;5.32;;;10.10;99.90;;;;;;4981562;28;20035;-75
2022/01/02 02:51:21;;;;;;;6.05;3.90;;;10.10;99.90;;;;;;4981137;28;20126;-75
2022/01/02 02:53:48;;;;;;;10.90;5.32;;;10.10;99.90;;;;;;4981453;28;20034;-74
2022/01/02 02:56:24;;;;;;;8.63;5.32;;;10.20;99.90;;;;;;4992847;23;20031;-71
2022/01/02 02:58:55;;;;;;;10.93;6.32;;;10.20;99.90;;;;;;4979972;28;20042;-71
2022/01/02 03:01:22;;;;;;;8.25;5.13;;;10.30;99.90;;;;;;4976959;28;20042;-71
2022/01/02 03:03:49;;;;;;;12.20;5.63;;;10.40;99.90;;;;;;4979611;28;20513;-71
2022/01/02 03:06:15;;;;;;;9.20;5.65;;;10.50;99.90;;;;;;4979973;28;20043;-71
2022/01/02 03:08:42;;;;;;;7.75;5.57;;;10.60;99.90;;;;;;4981791;28;20022;-71
2022/01/02 03:11:12;;;;;;;12.73;6.88;;;10.70;99.90;;;;;;4980400;28;20122;-71
2022/01/02 03:13:38;;;;;;;8.85;5.88;;;10.70;99.90;;;;;;4979477;28;20030;-71
2022/01/02 03:16:04;;;;;;;;;;;10.70;99.90;;;;;;4978543;28;20043;-71
2022/01/02 03:18:29;;;;;;;11.68;6.35;;;10.70;99.90;;;;;;4978044;28;19910;-71
2022/01/02 03:20:55;;;;;;;8.00;4.75;;;10.70;99.90;;;;;;4981160;28;20399;-71
2022/01/02 03:23:20;;;;;;;9.95;4.85;;;10.70;99.90;;;;;;4980125;28;20411;-71
2022/01/02 03:25:46;;;;;;;;;;;10.70;99.90;;;;;;4980349;28;20031;-71
2022/01/02 03:28:11;;;;;;;9.63;5.20;;;10.70;99.90;;;;;;4963721;28;20290;-71
2022/01/02 03:30:37;;;;;;;;;;;10.70;99.90;;;;;;4978987;28;20145;-71
2022/01/02 03:33:02;;;;;;;6.28;4.40;;;10.70;99.90;;;;;;4979017;28;19914;-71
2022/01/02 03:35:28;;;;;;;;;;;10.70;99.90;;;;;;4979044;28;20105;-71
2022/01/02 03:37:54;;;;;;;11.60;4.05;;;10.70;99.90;;;;;;4980261;28;19910;-71
2022/01/02 03:40:19;;;;;;;11.10;5.15;;;10.80;99.90;;;;;;4980125;28;20043;-71
2022/01/02 03:42:45;;;;;;;9.70;4.70;;;10.80;99.90;;;;;;4979680;28;20479;-71
2022/01/02 03:45:11;;;;;;;;;;;10.80;99.90;;;;;;4978393;28;20053;-71
2022/01/02 03:47:36;;;;;;;9.05;5.13;;;10.80;99.90;;;;;;4980909;28;19928;-71
2022/01/02 03:50:03;;;;;;;;;;;10.70;99.90;;;;;;4980252;28;20023;-71
2022/01/02 03:52:29;;;;;;;10.73;5.28;;;10.80;99.90;;;;;;4977108;28;19964;-71
2022/01/02 03:54:55;;;;;;;;;;;10.80;99.90;;;;;;4980227;28;20427;-71
2022/01/02 03:57:20;;;;;;;5.25;4.50;;;10.80;99.90;;;;;;4979190;28;19918;-71
2022/01/02 03:59:46;;;;;;;;;;;10.80;99.90;;;;;;4978012;28;20577;-71
2022/01/02 04:02:11;;;;;;;7.80;4.97;;;10.80;99.90;;;;;;4979517;28;19921;-71
2022/01/02 04:04:37;;;;;;;;;;;10.90;99.90;;;;;;4978913;28;20066;-71
2022/01/02 04:07:03;;;;;;;8.93;4.38;;;10.90;99.90;;;;;;4977919;28;19957;-71
2022/01/02 04:09:29;;;;;;;6.32;4.60;;;10.90;99.90;;;;;;4979236;28;20069;-71
2022/01/02 04:11:54;;;;;;;;;;;10.90;99.90;;;;;;4979981;28;20022;-71
2022/01/02 04:14:20;;;;;;;5.90;4.38;;;10.90;99.90;;;;;;4980041;28;19909;-71
2022/01/02 04:16:45;;;;;;;;;;;10.90;99.90;;;;;;4977959;28;20034;-71
2022/01/02 04:19:10;;;;;;;9.63;5.75;;;10.90;99.90;;;;;;4977936;28;20560;-71
2022/01/02 04:21:36;;;;;;;;;;;10.90;99.90;;;;;;4979670;28;20034;-71
2022/01/02 04:24:01;;;;;;;11.98;5.80;;;10.90;99.90;;;;;;4978813;28;19914;-71
2022/01/02 04:26:27;;;;;;;;;;;10.90;99.90;;;;;;4978684;28;20157;-71
2022/01/02 04:28:52;;;;;;;10.70;6.75;;;11.00;99.90;;;;;;4979662;28;20476;-71
2022/01/02 04:31:18;;;;;;;;;;;11.00;99.90;;;;;;4979302;28;20379;-71
2022/01/02 04:33:43;;;;;;;10.68;7.03;;;11.00;99.90;;;;;;4979000;28;19921;-71
2022/01/02 04:36:09;;;;;;;;;;;11.00;99.90;;;;;;4977833;28;20030;-71
2022/01/02 04:38:36;;;;;;;9.18;5.45;;;11.00;99.90;;;;;;4977812;28;20409;-71
2022/01/02 04:41:02;;;;;;;12.45;7.70;;;11.00;99.90;;;;;;4977155;28;20052;-71
2022/01/02 04:43:28;;;;;;;;;;;11.00;99.90;;;;;;4979507;28;20475;-71
2022/01/02 04:45:53;;;;;;;11.43;5.93;;;11.00;99.90;;;;;;4978392;28;19961;-71
2022/01/02 04:48:19;;;;;;;11.45;5.82;;;11.00;99.90;;;;;;4979949;28;20034;-71
2022/01/02 04:50:44;;;;;;;;;;;11.10;99.90;;;;;;4978950;28;20034;-71
2022/01/02 04:53:10;;;;;;;9.27;5.78;;;11.10;99.90;;;;;;4978771;28;19917;-71
2022/01/02 04:55:35;;;;;;;;;;;11.10;99.90;;;;;;4978851;28;20019;-71
2022/01/02 04:58:01;;;;;;;7.63;4.63;;;11.10;99.90;;;;;;4976641;28;19917;-71
2022/01/02 05:00:27;;;;;;;;;;;11.10;99.90;;;;;;4978175;28;20034;-71
2022/01/02 05:02:52;;;;;;;5.88;3.63;;;11.10;99.90;;;;;;4979867;28;20290;-71
2022/01/02 05:05:18;;;;;;;;;;;11.10;99.90;;;;;;4979305;28;20027;-71
2022/01/02 05:07:43;;;;;;;9.07;4.75;;;11.10;99.90;;;;;;4979641;28;19917;-71
2022/01/02 05:10:09;;;;;;;;;;;11.10;99.90;;;;;;4977791;28;20491;-71
2022/01/02 05:12:34;;;;;;;6.68;3.38;;;11.10;99.90;;;;;;4979620;28;19906;-71
2022/01/02 05:15:00;;;;;;;;;;;11.10;99.90;;;;;;4976388;28;20586;-71
2022/01/02 05:17:26;;;;;;;7.50;4.68;;;11.20;99.90;;;;;;4978677;28;19917;-71
2022/01/02 05:19:52;;;;;;;;;;;11.20;99.90;;;;;;4977737;28;20503;-71
2022/01/02 05:22:17;;;;;;;5.55;4.03;;;11.20;99.90;;;;;;4978552;28;20005;-71
2022/01/02 05:24:42;;;;;;;;;;;11.20;99.90;;;;;;4977449;28;20547;-71
2022/01/02 05:27:08;;;;;;;8.35;3.88;;;11.20;99.90;;;;;;4979410;28;19907;-72
2022/01/02 05:29:34;;;;;;;;;;;11.20;99.90;;;;;;4979018;28;20037;-71
2022/01/02 05:31:59;;;;;;;10.32;4.18;;;11.20;99.90;;;;;;4976872;28;20385;-71
2022/01/02 05:34:24;;;;;;;;;;;11.20;99.90;;;;;;4978396;28;20575;-71
2022/01/02 05:36:50;;;;;;;6.28;4.18;;;11.20;99.90;;;;;;4979772;28;19906;-71
2022/01/02 05:39:16;;;;;;;;;;;11.30;99.90;;;;;;4978764;28;20042;-71
2022/01/02 05:41:42;;;;;;;7.38;4.47;;;11.20;99.90;;;;;;4979557;28;19906;-71
2022/01/02 05:44:08;;;;;;;;;;;11.20;99.90;;;;;;4977874;28;20126;-71
2022/01/02 05:46:33;;;;;;;9.90;3.95;;;11.30;99.90;;;;;;4977943;28;19910;-71
2022/01/02 05:48:59;;;;;;;7.70;4.30;;;11.30;99.90;;;;;;4974862;28;20519;-71
2022/01/02 05:51:24;;;;;;;;;;;11.30;99.90;;;;;;4978846;28;20030;-71
2022/01/02 05:53:50;;;;;;;8.48;3.45;;;11.30;99.90;;;;;;4979059;28;19973;-71
2022/01/02 05:56:15;;;;;;;;;;;11.30;99.90;;;;;;4978807;28;20041;-71
2022/01/02 05:58:41;;;;;;;6.65;4.43;;;11.30;99.90;;;;;;4978451;28;19924;-71
2022/01/02 06:01:06;;;;;;;8.73;4.70;;;11.20;99.90;;;;;;4976507;28;20042;-71
2022/01/02 06:03:32;;;;;;;7.28;3.67;;;11.30;99.90;;;;;;4976952;28;20039;-70
2022/01/02 06:05:57;;;;;;;;;;;11.30;99.90;;;;;;4977273;28;20065;-71
2022/01/02 06:08:22;;;;;;;7.05;3.72;;;11.30;99.90;;;;;;4980378;28;19918;-71
2022/01/02 06:10:48;;;;;;;;;;;11.30;99.90;;;;;;4982520;28;20048;-71
2022/01/02 06:13:14;;;;;;;9.27;3.78;;;11.30;99.90;;;;;;4981438;28;19921;-71
2022/01/02 06:15:39;;;;;;;;;;;11.30;99.90;;;;;;4980028;28;20065;-71
2022/01/02 06:18:05;;;;;;;15.45;6.55;;;11.30;99.90;;;;;;4981625;28;20921;-71
2022/01/02 06:20:30;;;;;;;;;;;11.30;99.90;;;;;;4980803;28;20031;-71
2022/01/02 06:22:56;;;;;;;10.77;4.43;;;11.20;99.90;;;;;;4980011;28;19932;-71
2022/01/02 06:25:22;;;;;;;;;;;11.20;99.90;;;;;;4981067;28;20069;-71
2022/01/02 06:27:48;;;;;;;10.23;4.15;;;11.20;99.90;;;;;;4981611;28;19913;-71
2022/01/02 06:30:14;;;;;;;5.05;3.35;;;11.20;99.90;;;;;;4980587;28;20113;-71
2022/01/02 06:32:39;;;;;;;;;;;11.20;99.90;;;;;;4983078;28;20457;-71
2022/01/02 06:35:05;;;;;;;8.13;3.70;;;11.20;99.90;;;;;;4979942;28;19933;-71
2022/01/02 06:37:31;;;;;;;12.77;5.85;;;11.30;99.90;;;;;;4977799;28;20035;-71
2022/01/02 06:39:56;;;;;;;;;;;11.30;99.90;;;;;;4981284;28;20050;-71
2022/01/02 06:42:22;;;;;;;8.52;4.63;;;11.30;99.90;;;;;;4982279;28;19906;-71
2022/01/02 06:44:48;;;;;;;;;;;11.30;99.90;;;;;;4980657;28;20034;-71
2022/01/02 06:47:14;;;;;;;9.20;4.43;;;11.30;99.90;;;;;;4980222;28;19914;-71
2022/01/02 06:49:41;;;;;;;;;;;11.30;99.90;;;;;;4981780;28;20623;-71
2022/01/02 06:52:06;;;;;;;7.97;3.95;;;11.30;99.90;;;;;;4986794;28;20314;-71
2022/01/02 06:54:32;;;;;;;;;;;11.30;99.90;;;;;;4980942;28;20030;-71
2022/01/02 06:56:57;;;;;;;10.93;3.65;;;11.30;99.90;;;;;;4978305;28;19921;-71
2022/01/02 06:59:23;;;;;;;;;;;11.30;99.90;;;;;;4980517;28;20505;-71
2022/01/02 07:01:48;;;;;;;9.50;4.13;;;11.30;99.90;;;;;;4978922;28;19956;-70
2022/01/02 07:04:14;;;;;;;;;;;11.30;99.90;;;;;;4981468;28;20247;-71
2022/01/02 07:06:39;;;;;;;8.82;3.60;;;11.30;99.90;;;;;;4978054;28;20000;-71
2022/01/02 07:09:05;;;;;;;;;;;11.30;99.90;;;;;;4980923;28;20113;-71
2022/01/02 07:11:30;;;;;;;6.90;3.38;;;11.30;99.90;;;;;;4980826;28;19910;-71
2022/01/02 07:13:56;;;;;;;;;;;11.30;99.90;;;;;;4979828;28;20035;-71
2022/01/02 07:16:21;;;;;;;6.18;4.18;;;11.30;99.90;;;;;;4977457;28;19914;-71
2022/01/02 07:18:47;;;;;;;;;;;11.30;99.90;;;;;;4980124;28;20030;-71
2022/01/02 07:21:13;;;;;;;6.50;3.72;;;11.30;99.90;;;;;;4981110;28;19917;-71
2022/01/02 07:23:38;;;;;;;;;;;11.30;99.90;;;;;;4979540;28;20033;-71
2022/01/02 07:26:04;;;;;;;6.70;4.00;;;11.30;99.90;;;;;;4978999;28;19918;-71
2022/01/02 07:28:33;;;;;;;6.18;4.03;;;11.20;99.90;;;;;;4978179;28;20037;-71
2022/01/02 07:30:59;;;;;;;8.38;4.32;;;11.20;99.90;;;;;;4978964;28;20182;-71
2022/01/02 07:33:25;;;;;;;11.70;4.72;;;11.20;99.90;;;;;;4979427;28;20113;-71
2022/01/02 07:35:50;;;;;;;;;;;11.20;99.90;;;;;;4981286;28;20161;-71
2022/01/02 07:38:15;;;;;;;6.53;3.42;;;11.20;99.90;;;;;;4978578;28;20393;-70
2022/01/02 07:40:41;;;;;;;;;;;11.20;99.90;;;;;;4980680;28;20034;-71
2022/01/02 07:43:06;;;;;;;6.20;3.80;;;11.20;99.90;;;;;;4979616;28;20004;-71
2022/01/02 07:45:32;;;;;;;;;;;11.20;99.90;;;;;;4977221;28;20022;-71
2022/01/02 07:47:57;;;;;;;9.00;3.70;;;11.20;99.90;;;;;;4979559;28;19949;-71
2022/01/02 07:50:23;;;;;;;;;;;11.20;99.90;;;;;;4980223;28;20578;-71
2022/01/02 07:52:48;;;;;;;7.07;3.38;;;11.20;99.90;;;;;;4979930;28;19909;-71
2022/01/02 07:55:14;;;;;;;;;;;11.20;99.90;;;;;;4979149;28;20034;-71
2022/01/02 07:57:40;;;;;;;8.38;3.45;;;11.20;99.90;;;;;;4979861;28;19976;-71
2022/01/02 08:00:05;;;;;;;;;;;11.20;99.90;;;;;;4979376;28;20495;-71
2022/01/02 08:02:31;;;;;;;7.40;4.45;;;11.30;99.90;;;;;;4978129;28;19914;-71
2022/01/02 08:04:56;;;;;;;;;;;11.20;99.90;;;;;;4978693;28;20045;-71
2022/01/02 08:07:22;;;;;;;7.70;3.78;;;11.20;99.90;;;;;;4978400;28;19977;-71
2022/01/02 08:09:47;;;;;;;;;;;11.20;99.90;;;;;;4979681;28;20522;-71
2022/01/02 08:12:13;;;;;;;9.80;3.40;;;11.30;99.90;;;;;;4980135;28;19910;-71
2022/01/02 08:14:38;;;;;;;;;;;11.20;99.90;;;;;;4979793;28;20037;-72
2022/01/02 08:17:04;;;;;;;6.57;3.95;;;11.20;99.90;;;;;;4975895;28;20330;-71
2022/01/02 08:19:29;;;;;;;;;;;11.20;99.90;;;;;;4979088;28;20026;-71
2022/01/02 08:21:54;;;;;;;8.82;3.85;;;11.20;99.90;;;;;;4979266;28;19914;-71
2022/01/02 08:24:20;;;;;;;;;;;11.20;99.90;;;;;;4977820;28;20069;-71
2022/01/02 08:26:46;;;;;;;5.88;3.45;;;11.20;99.90;;;;;;4978987;28;20314;-71
2022/01/02 08:29:12;;;;;;;10.15;3.97;;;11.20;99.90;;;;;;4978537;28;20062;-71
2022/01/02 08:31:40;;;;;;;8.32;3.70;;;11.30;99.90;;;;;;4979175;28;20030;-70
2022/01/02 08:34:06;;;;;;;7.22;4.10;;;11.30;99.90;;;;;;4975795;28;20039;-70
2022/01/02 08:36:31;;;;;;;;;;;11.30;99.90;;;;;;4980118;28;20166;-71
2022/01/02 08:38:57;;;;;;;7.95;4.45;;;11.30;99.90;;;;;;4977746;28;20021;-70
2022/01/02 08:41:22;;;;;;;;;;;11.30;99.90;;;;;;4979505;28;20041;-70
2022/01/02 08:43:51;;;;;;;6.85;3.70;;;11.40;99.90;;;;;;4978971;28;20017;-70
2022/01/02 08:46:17;;;;;;;7.38;3.22;;;11.40;99.90;;;;;;4975620;28;20038;-71
2022/01/02 08:48:45;;;;;;;;;;;11.40;99.90;;;;;;4978637;28;20026;-70
2022/01/02 08:51:20;;;;;;;7.00;3.67;;;11.40;99.90;;;;;;4977398;28;19910;-70
2022/01/02 08:53:45;;;;;;;9.20;3.63;;;11.40;99.90;;;;;;4979065;28;20487;-70
2022/01/02 08:56:11;;;;;;;;;;;11.50;99.90;;;;;;4979492;28;20050;-66
2022/01/02 08:58:36;;;;;;;6.55;3.15;;;11.50;99.90;;;;;;4955466;23;19927;-77
2022/01/02 09:01:02;;;;;;;;;;;11.50;99.90;;;;;;4941305;29;20127;-77
2022/01/02 09:03:29;;;;;;;5.70;2.67;;;11.60;99.90;;;;;;4940127;28;20355;-77
2022/01/02 09:05:55;;;;;;;6.18;3.60;;;11.60;99.90;;;;;;4939784;28;20037;-75
2022/01/02 09:08:20;;;;;;;;;;;11.70;99.90;;;;;;4937675;28;20381;-73
2022/01/02 09:10:45;;;;;;;10.05;5.03;;;11.70;99.90;;;;;;4939819;28;19919;-75
2022/01/02 09:13:11;;;;;;;;;;;12.00;99.90;;;;;;4941522;29;20110;-78
2022/01/02 09:15:37;;;;;;;6.05;3.00;;;12.40;99.90;;;;;;4939218;28;20311;-75
2022/01/02 09:18:03;;;;;;;;;;;12.40;99.90;;;;;;4940783;28;20107;-77
2022/01/02 09:20:28;;;;;;;10.65;3.78;;;12.30;99.90;;;;;;4940368;28;20371;-76
2022/01/02 09:22:55;;;;;;;;;;;12.20;99.90;;;;;;4940718;29;20035;-75
2022/01/02 09:25:20;;;;;;;6.32;3.17;;;12.10;99.90;;;;;;4931434;29;19918;-76
2022/01/02 09:27:45;;;;;;;;;;;12.10;99.90;;;;;;4938547;28;20114;-75
2022/01/02 09:30:12;;;;;;;7.50;3.50;;;12.00;99.90;;;;;;4936388;29;19945;-75
2022/01/02 09:32:38;;;;;;;8.38;3.45;;;12.00;99.90;;;;;;4937760;28;20028;-76
2022/01/02 09:35:04;;;;;;;;;;;11.90;99.90;;;;;;4938769;29;20042;-75
2022/01/02 09:37:30;;;;;;;7.88;3.10;;;11.90;99.90;;;;;;4939801;28;19911;-76
2022/01/02 09:39:55;;;;;;;;;;;11.90;99.90;;;;;;4940544;28;20550;-76
2022/01/02 09:42:21;;;;;;;8.70;3.05;;;11.90;99.90;;;;;;4941658;28;19921;-75
2022/01/02 09:44:47;;;;;;;;;;;11.90;99.90;;;;;;4945222;28;20042;-75
2022/01/02 09:47:18;;;;;;;5.25;3.70;;;11.90;99.90;;;;;;4942556;28;20262;-76
2022/01/02 09:49:45;;;;;;;10.77;3.50;;;11.90;99.90;;;;;;4941395;29;20064;-77
2022/01/02 09:52:10;;;;;;;8.85;4.35;;;11.90;99.90;;;;;;4942633;28;20024;-77
2022/01/02 09:54:36;;;;;;;;;;;11.90;99.90;;;;;;4943582;29;20078;-77
2022/01/02 09:57:02;;;;;;;7.65;2.95;;;12.00;99.90;;;;;;4943143;28;19915;-77
2022/01/02 09:59:28;;;;;;;;;;;12.00;99.90;;;;;;4943907;28;20074;-77
2022/01/02 10:01:53;;;;;;;7.80;3.00;;;12.10;99.90;;;;;;4941045;28;19918;-77
2022/01/02 10:04:32;;;;;;;;;;;12.10;99.90;;;;;;4942985;28;20074;-77
2022/01/02 10:06:58;;;;;;;7.10;3.55;;;12.10;99.90;;;;;;4940666;28;20334;-77
2022/01/02 10:09:30;;;;;;;;;;;12.20;99.90;;;;;;4938182;28;20710;-77
2022/01/02 10:12:19;;;;;;;4.60;2.60;;;12.20;99.90;;;;;;4942827;28;19915;-76
2022/01/02 10:14:44;;;;;;;8.85;3.85;;;12.20;99.90;;;;;;4941330;29;20043;-77
2022/01/02 10:17:10;;;;;;;;;;;12.30;99.90;;;;;;4943376;28;20023;-77
2022/01/02 10:19:38;;;;;;;6.80;1.92;;;12.30;99.90;;;;;;4940101;29;20020;-76
2022/01/02 10:22:06;;;;;;;5.68;2.60;;;12.30;99.90;;;;;;4943728;29;20390;-77
2022/01/02 10:24:42;;;;;;;4.18;2.17;;;12.30;99.90;;;;;;4939631;28;20035;-76
2022/01/02 10:27:12;;;;;;;4.63;2.65;;;12.30;99.90;;;;;;4942018;28;20059;-77
2022/01/02 10:29:45;;;;;;;8.88;3.50;;;12.30;99.90;;;;;;4941250;29;20039;-76
2022/01/02 10:32:36;;;;;;;13.63;4.15;;;12.30;99.90;;;;;;4940607;28;20023;-77
2022/01/02 10:35:13;;;;;;;12.90;6.43;;;12.30;99.90;;;;;;4941283;29;20039;-77
2022/01/02 10:37:47;;;;;;;7.25;3.30;;;12.30;99.90;;;;;;4942598;28;20035;-77
2022/01/02 10:40:34;;;;;;;7.22;3.58;;;12.40;99.90;;;;;;4939819;29;20035;-78
2022/01/02 10:43:02;;;;;;;7.10;2.47;;;12.30;99.90;;;;;;4942550;29;20032;-71
2022/01/02 10:45:38;;;;;;;5.63;2.58;;;12.30;99.90;;;;;;4941148;29;20035;-71
2022/01/02 10:48:06;;;;;;;;;;;12.30;99.90;;;;;;4941274;29;20034;-72
2022/01/02 10:50:32;;;;;;;4.63;1.95;;;12.30;99.90;;;;;;4937531;29;19914;-73
2022/01/02 10:53:09;;;;;;;;;;;12.40;99.90;;;;;;4942163;29;20507;-72
2022/01/02 10:55:35;;;;;;;2.83;1.67;;;12.40;99.90;;;;;;4940722;29;19921;-72
2022/01/02 10:58:02;;;;;;;;;;;12.40;99.90;;;;;;4933655;29;20036;-72
2022/01/02 11:00:29;;;;;;;5.63;1.95;;;12.40;99.90;;;;;;4942267;28;20078;-72
2022/01/02 11:02:54;;;;;;;4.40;2.08;;;12.40;99.90;;;;;;4940859;29;20032;-73
2022/01/02 11:05:21;;;;;;;;;;;12.40;99.90;;;;;;4939310;28;20066;-73
2022/01/02 11:07:51;;;;;;;12.43;3.00;;;12.40;99.90;;;;;;4939527;29;19911;-71
2022/01/02 11:10:19;;;;;;;4.38;2.15;;;12.40;99.90;;;;;;4939989;29;20106;-71
2022/01/02 11:12:46;;;;;;;5.93;2.38;;;12.50;99.90;;;;;;4940795;29;20400;-70
2022/01/02 11:15:14;;;;;;;6.25;2.50;;;12.50;99.90;;;;;;4936883;29;20034;-70
2022/01/02 11:17:40;;;;;;;6.43;2.55;;;12.60;99.90;;;;;;4938974;28;20031;-71
2022/01/02 11:20:07;;;;;;;;;;;12.60;99.90;;;;;;4938615;29;20451;-71
2022/01/02 11:22:47;;;;;;;6.10;2.47;;;12.60;99.90;;;;;;4937435;29;19950;-71
2022/01/02 11:25:28;;;;;;;7.65;2.00;;;12.60;99.90;;;;;;4939650;29;20078;-72
2022/01/02 11:28:00;;;;;;;10.85;2.95;;;12.70;99.90;;;;;;4941804;28;20030;-71
2022/01/02 11:30:32;;;;;;;4.65;2.38;;;12.70;99.90;;;;;;4939864;29;20078;-72
2022/01/02 11:33:09;;;;;;;8.48;2.22;;;12.70;99.90;;;;;;4942058;29;20114;-71
2022/01/02 11:35:37;;;;;;;3.95;2.45;;;12.70;99.90;;;;;;4939037;29;20059;-72
2022/01/02 11:38:04;;;;;;;5.50;2.88;;;12.80;99.90;;;;;;4942163;28;20035;-72
2022/01/02 11:40:47;;;;;;;7.75;2.25;;;12.80;99.90;;;;;;4941236;29;20027;-70
2022/01/02 11:43:46;;;;;;;6.60;2.15;;;12.90;99.90;;;;;;4939192;28;20845;-71
2022/01/02 11:46:29;;;;;;;8.82;2.20;;;12.90;99.90;;;;;;4941663;28;20042;-71
2022/01/02 11:49:13;;;;;;;6.00;3.33;;;13.00;99.90;;;;;;4941235;28;20038;-72
2022/01/02 11:51:47;;;;;;;9.48;3.85;;;13.10;99.90;;;;;;4941807;29;20024;-71
2022/01/02 11:54:40;;;;;;;11.93;5.78;;;13.20;99.90;;;;;;4940791;29;20043;-71
2022/01/02 11:57:14;;;;;;;16.02;5.32;;;13.20;99.90;;;;;;4940298;28;20122;-70
2022/01/02 11:59:40;;;;;;;11.88;6.00;;;13.20;99.90;;;;;;4938335;29;20043;-71
2022/01/02 12:02:09;;;;;;;;;;;13.30;99.90;;;;;;4941070;28;20063;-71
2022/01/02 12:04:59;;;;;;;13.07;4.22;;;13.30;99.90;;;;;;4938612;28;20359;-71
2022/01/02 12:07:55;;;;;;;10.82;3.58;;;13.40;99.90;;;;;;4941712;28;20705;-72
2022/01/02 12:10:41;;;;;;;9.85;2.83;;;13.50;99.90;;;;;;4936455;28;20047;-72
2022/01/02 12:13:16;;;;;;;6.80;2.28;;;13.50;99.90;;;;;;4938369;28;20031;-71
2022/01/02 12:15:42;;;;;;;10.15;2.67;;;13.60;99.90;;;;;;4934564;29;20028;-71
2022/01/02 12:18:15;;;;;;;;;;;13.70;99.90;;;;;;4933841;29;20035;-71
2022/01/02 12:20:52;;;;;;;6.68;2.22;;;13.70;99.90;;;;;;4938521;28;19917;-71
2022/01/02 12:23:33;;;;;;;3.03;1.48;;;13.70;99.90;;;;;;4938759;28;20395;-73
2022/01/02 12:26:07;;;;;;;4.20;1.27;;;13.70;99.90;;;;;;4937608;28;20023;-72
2022/01/02 12:29:07;;;;;;;4.40;1.63;;;13.70;99.90;;;;;;4940548;29;20033;-72
2022/01/02 12:31:45;;;;;;;3.75;2.35;;;13.60;99.90;;;;;;4937214;29;20062;-73
2022/01/02 12:34:20;;;;;;;3.83;2.53;;;13.60;99.90;;;;;;4941020;29;20076;-71
2022/01/02 12:36:50;;;;;;;8.73;3.83;;;13.50;99.90;;;;;;4935546;29;20039;-71
2022/01/02 12:39:24;;;;;;;6.95;3.03;;;13.50;99.90;;;;;;4937994;29;20501;-72
2022/01/02 12:41:50;;;;;;;4.38;2.55;;;13.70;99.90;;;;;;4939411;29;20078;-70
2022/01/02 12:44:25;;;;;;;6.30;2.80;;;13.80;99.90;;;;;;4938811;28;20122;-71
2022/01/02 12:46:53;;;;;;;13.05;3.63;;;13.70;99.90;;;;;;4936986;28;20047;-69
2022/01/02 12:49:30;;;;;;;6.07;1.92;;;13.60;99.90;;;;;;4939741;29;20023;-69
2022/01/02 12:52:10;;;;;;;3.60;2.45;;;13.40;99.90;;;;;;4940051;29;20496;-70
2022/01/02 12:54:38;;;;;;;7.65;3.53;;;13.20;99.90;;;;;;4938451;28;20044;-70
2022/01/02 12:57:09;;;;;;;5.97;2.25;;;13.10;99.90;;;;;;4939238;29;20035;-70
2022/01/02 12:59:40;;;;;;;5.88;2.55;;;13.00;99.90;;;;;;4939855;28;20087;-70
2022/01/02 13:02:11;;;;;;;11.52;3.45;;;12.80;99.90;;;;;;4939925;29;20466;-70
2022/01/02 13:04:38;;;;;;;8.93;2.47;;;12.80;99.90;;;;;;4940161;28;20469;-70
2022/01/02 13:07:14;;;;;;;10.68;2.75;;;12.80;99.90;;;;;;4940426;28;20071;-70
2022/01/02 13:09:42;;;;;;;4.35;3.00;;;12.70;99.90;;;;;;4939143;29;20055;-70
2022/01/02 13:12:20;;;;;;;10.63;3.05;;;12.60;99.90;;;;;;4940466;29;20481;-70
2022/01/02 13:14:47;;;;;;;6.57;2.60;;;12.60;99.90;;;;;;4941425;28;20427;-70
2022/01/02 13:17:50;;;;;;;4.88;2.22;;;12.60;99.90;;;;;;4943582;28;20451;-70
2022/01/02 13:20:38;;;;;;;4.82;2.30;;;12.60;99.90;;;;;;4914492;29;20047;-70
2022/01/02 13:23:05;;;;;;;5.78;3.60;;;12.60;99.90;;;;;;4944700;29;20120;-70
2022/01/02 13:25:33;;;;;;;6.70;3.13;;;12.50;99.90;;;;;;4943264;29;20518;-70